createdAt,value
2023-05-02T00:01:49.616Z,99913.81
2023-05-02T00:04:17.300Z,99903.53
2023-05-02T00:06:46.337Z,99915.03
2023-05-02T00:09:14.227Z,99907.34
2023-05-02T00:11:42.952Z,99907.16
2023-05-02T00:14:10.774Z,99911.66
2023-05-02T00:16:38.181Z,99917.94
2023-05-02T00:19:05.680Z,99919.44
2023-05-02T00:21:33.574Z,99925.81
2023-05-02T00:24:01.121Z,99926.72
2023-05-02T00:26:28.935Z,99932.41
2023-05-02T00:28:58.791Z,99934.25
2023-05-02T00:31:26.403Z,99930.63
2023-05-02T00:33:53.804Z,99932.06
2023-05-02T00:36:21.216Z,99932.06
2023-05-02T00:38:48.571Z,99929.09
2023-05-02T00:41:17.785Z,99929.63
2023-05-02T00:43:46.512Z,99930.53
2023-05-02T00:46:15.492Z,99921.91
2023-05-02T00:48:43.837Z,99919.78
2023-05-02T00:51:12.948Z,99925.56
2023-05-02T00:53:41.003Z,99923.34
2023-05-02T00:56:09.705Z,99927.91
2023-05-02T00:58:38.568Z,99913.63
2023-05-02T01:01:17.554Z,99911.91
2023-05-02T01:04:00.765Z,99910.25
2023-05-02T01:06:32.974Z,99907.81
2023-05-02T01:09:06.333Z,99901.28
2023-05-02T01:11:40.633Z,99905.81
2023-05-02T01:14:12.229Z,99898.34
2023-05-02T01:16:42.051Z,99900.69
2023-05-02T01:22:05.871Z,99898.59
2023-05-02T01:24:49.030Z,99896.41
2023-05-02T01:27:23.646Z,99905.63
2023-05-02T01:29:55.771Z,99891.09
2023-05-02T01:32:25.895Z,99911.28
2023-05-02T01:35:02.558Z,99909.09
2023-05-02T01:37:33.429Z,99913.63
2023-05-02T01:40:06.886Z,99897.06
2023-05-02T01:42:37.853Z,99899.69
2023-05-02T01:45:12.044Z,99890.34
2023-05-02T01:47:42.042Z,99908.25
2023-05-02T01:50:12.913Z,99898.09
2023-05-02T01:52:42.923Z,99903.91
2023-05-02T01:55:14.560Z,99897.59
2023-05-02T01:57:44.956Z,99908.50
2023-05-02T02:00:17.404Z,99904.69
2023-05-02T02:02:49.793Z,99902.72
2023-05-02T02:05:19.417Z,99835.13
2023-05-02T02:07:47.776Z,99891.09
2023-05-02T02:10:16.701Z,99899.16
2023-05-02T02:12:50.075Z,99900.75
2023-05-02T02:15:22.660Z,99902.13
2023-05-02T02:17:58.109Z,99901.84
2023-05-02T02:20:32.170Z,99903.13
2023-05-02T02:23:02.638Z,99898.44
2023-05-02T02:25:31.102Z,99913.41
2023-05-02T02:27:59.129Z,99910.28
2023-05-02T02:30:30.604Z,99916.44
2023-05-02T02:33:00.048Z,99907.41
2023-05-02T02:35:32.691Z,99896.03
2023-05-02T02:38:11.513Z,99884.88
2023-05-02T02:40:48.365Z,99878.06
2023-05-02T02:43:25.101Z,99875.97
2023-05-02T02:46:18.418Z,99857.72
2023-05-02T02:48:56.540Z,99877.03
2023-05-02T02:51:29.724Z,99877.56
2023-05-02T02:54:09.840Z,99875.16
2023-05-02T02:56:52.502Z,99879.00
2023-05-02T02:59:28.802Z,99885.63
2023-05-02T03:02:08.269Z,99881.81
2023-05-02T03:04:42.028Z,99898.31
2023-05-02T03:07:12.962Z,99902.44
2023-05-02T03:09:45.556Z,99901.47
2023-05-02T03:12:15.752Z,99901.47
2023-05-02T03:14:43.561Z,99898.66
2023-05-02T03:17:14.002Z,99892.75
2023-05-02T03:19:43.823Z,99899.84
2023-05-02T03:22:11.375Z,99898.31
2023-05-02T03:24:41.200Z,99897.53
2023-05-02T03:27:09.910Z,99897.13
2023-05-02T03:29:37.288Z,99880.25
2023-05-02T03:32:06.709Z,99908.13
2023-05-02T03:34:37.466Z,99912.38
2023-05-02T03:37:07.145Z,99909.25
2023-05-02T03:39:34.524Z,99914.06
2023-05-02T03:42:03.911Z,99914.31
2023-05-02T03:44:31.584Z,99912.44
2023-05-02T03:47:00.971Z,99915.38
2023-05-02T03:49:28.412Z,99916.66
2023-05-02T03:51:57.126Z,99929.66
2023-05-02T03:54:25.088Z,99921.50
2023-05-02T03:56:54.494Z,99921.84
2023-05-02T03:59:23.858Z,99923.44
2023-05-02T04:01:51.644Z,99931.91
2023-05-02T04:04:19.266Z,99901.09
2023-05-02T04:06:47.187Z,99931.66
2023-05-02T04:09:16.033Z,99938.47
2023-05-02T04:11:43.435Z,99930.97
2023-05-02T04:14:10.829Z,99936.50
2023-05-02T04:16:38.252Z,99953.06
2023-05-02T04:19:05.670Z,99954.22
2023-05-02T04:21:34.329Z,99960.44
2023-05-02T04:24:01.793Z,99957.75
2023-05-02T04:26:30.548Z,99974.53
2023-05-02T04:28:57.986Z,99969.84
2023-05-02T04:31:28.166Z,99977.59
2023-05-02T04:33:58.747Z,99985.94
2023-05-02T04:36:30.169Z,99993.44
2023-05-02T04:38:57.643Z,100003.31
2023-05-02T04:41:28.170Z,100011.53
2023-05-02T04:43:56.963Z,100001.97
2023-05-02T04:46:24.439Z,100005.47
2023-05-02T04:48:51.867Z,100012.88
2023-05-02T04:51:21.068Z,100019.44
2023-05-02T04:53:57.631Z,100011.81
2023-05-02T04:56:25.488Z,100018.38
2023-05-02T04:58:52.841Z,100023.41
2023-05-02T05:01:21.782Z,100028.75
2023-05-02T05:03:49.633Z,100031.88
2023-05-02T05:06:17.191Z,100025.66
2023-05-02T05:08:46.544Z,100028.56
2023-05-02T05:11:14.493Z,100034.38
2023-05-02T05:13:41.920Z,100037.34
2023-05-02T05:16:11.031Z,100045.56
2023-05-02T05:18:41.230Z,100043.41
2023-05-02T05:21:08.813Z,100051.94
2023-05-02T05:23:36.514Z,100062.03
2023-05-02T05:26:11.513Z,100068.38
2023-05-02T05:28:39.556Z,100081.91
2023-05-02T05:31:07.999Z,100079.25
2023-05-02T05:33:35.656Z,100087.63
2023-05-02T05:36:08.626Z,100101.84
2023-05-02T05:38:37.909Z,100107.41
2023-05-02T05:41:07.508Z,100117.13
2023-05-02T05:43:36.626Z,100122.31
2023-05-02T05:46:05.640Z,100136.91
2023-05-02T05:48:33.068Z,100138.63
2023-05-02T05:51:04.632Z,100134.28
2023-05-02T05:53:35.683Z,100129.50
2023-05-02T05:56:09.868Z,100135.75
2023-05-02T05:58:37.395Z,100138.06
2023-05-02T06:01:06.163Z,100145.00
2023-05-02T06:03:33.829Z,100127.78
2023-05-02T06:06:01.289Z,100145.25
2023-05-02T06:08:28.771Z,100145.81
2023-05-02T06:10:57.519Z,100148.84
2023-05-02T06:13:25.120Z,100187.16
2023-05-02T06:15:55.044Z,100173.75
2023-05-02T06:18:22.860Z,100196.81
2023-05-02T06:20:50.470Z,100202.09
2023-05-02T06:23:17.877Z,100209.81
2023-05-02T06:25:45.286Z,100213.69
2023-05-02T06:28:14.028Z,100218.50
2023-05-02T06:30:41.430Z,100235.94
2023-05-02T06:33:08.875Z,100236.31
2023-05-02T06:35:36.328Z,100248.81
2023-05-02T06:38:04.725Z,100256.22
2023-05-02T06:40:36.344Z,100263.03
2023-05-02T06:43:03.804Z,100256.22
2023-05-02T06:45:32.517Z,100271.75
2023-05-02T06:48:05.848Z,100268.44
2023-05-02T06:50:33.577Z,100271.44
2023-05-02T06:53:01.302Z,100276.19
2023-05-02T06:55:28.759Z,100269.72
2023-05-02T06:57:56.519Z,100276.06
2023-05-02T07:00:23.914Z,100276.63
2023-05-02T07:02:52.849Z,100275.16
2023-05-02T07:05:20.370Z,100283.00
2023-05-02T07:07:48.060Z,100271.56
2023-05-02T07:10:15.519Z,100273.94
2023-05-02T07:12:45.357Z,100276.38
2023-05-02T07:15:13.768Z,100273.66
2023-05-02T07:17:41.760Z,100288.50
2023-05-02T07:20:11.953Z,100295.81
2023-05-02T07:22:39.391Z,100295.28
2023-05-02T07:25:07.565Z,100298.97
2023-05-02T07:27:35.002Z,100303.56
2023-05-02T07:30:02.960Z,100324.09
2023-05-02T07:32:32.069Z,100337.81
2023-05-02T07:34:59.654Z,100339.56
2023-05-02T07:37:34.235Z,100345.13
2023-05-02T07:40:02.717Z,100374.69
2023-05-02T07:42:30.901Z,100397.22
2023-05-02T07:44:59.825Z,100413.22
2023-05-02T07:47:28.010Z,100430.09
2023-05-02T07:49:56.346Z,100455.56
2023-05-02T07:52:23.884Z,100469.97
2023-05-02T07:54:52.829Z,100493.56
2023-05-02T07:57:20.247Z,100497.75
2023-05-02T07:59:47.955Z,100529.31
2023-05-02T08:02:17.526Z,100539.06
2023-05-02T08:04:44.999Z,100557.69
2023-05-02T08:07:12.416Z,100569.53
2023-05-02T08:09:39.868Z,100574.22
2023-05-02T08:12:08.903Z,100583.66
2023-05-02T08:14:36.299Z,100579.63
2023-05-02T08:17:03.714Z,100574.59
2023-05-02T08:19:31.901Z,100588.84
2023-05-02T08:22:00.105Z,100594.53
2023-05-02T08:24:27.956Z,100593.69
2023-05-02T08:26:55.355Z,100609.56
2023-05-02T08:29:24.086Z,100627.66
2023-05-02T08:31:51.791Z,100628.44
2023-05-02T08:34:19.305Z,100633.53
2023-05-02T08:36:48.139Z,100638.41
2023-05-02T08:39:16.919Z,100659.63
2023-05-02T08:41:45.049Z,100654.78
2023-05-02T08:44:13.009Z,100662.19
2023-05-02T08:46:43.596Z,100678.34
2023-05-02T08:49:11.774Z,100692.53
2023-05-02T08:51:41.334Z,100697.03
2023-05-02T08:54:10.822Z,100707.03
2023-05-02T08:56:38.827Z,100708.53
2023-05-02T08:59:08.102Z,100705.69
2023-05-02T09:01:36.754Z,100721.09
2023-05-02T09:04:05.864Z,100717.41
2023-05-02T09:06:33.334Z,100725.47
2023-05-02T09:09:01.628Z,100735.78
2023-05-02T09:11:30.187Z,100763.22
2023-05-02T09:13:58.939Z,100766.56
2023-05-02T09:16:27.651Z,100763.81
2023-05-02T09:18:56.655Z,100776.81
2023-05-02T09:21:27.006Z,100783.38
2023-05-02T09:23:56.168Z,100788.84
2023-05-02T09:26:28.348Z,100795.03
2023-05-02T09:28:57.627Z,100799.50
2023-05-02T09:31:49.452Z,100802.94
2023-05-02T09:34:18.289Z,100826.44
2023-05-02T09:36:50.381Z,100815.19
2023-05-02T09:39:19.203Z,100831.78
2023-05-02T09:41:48.128Z,100835.06
2023-05-02T09:44:18.228Z,100842.59
2023-05-02T09:46:48.064Z,100839.25
2023-05-02T09:49:18.536Z,100853.25
2023-05-02T09:51:48.371Z,100866.38
2023-05-02T09:54:37.018Z,100876.53
2023-05-02T09:57:04.761Z,100884.06
2023-05-02T09:59:32.148Z,100883.25
2023-05-02T10:02:01.385Z,100901.88
2023-05-02T10:04:30.367Z,100914.00
2023-05-02T10:06:59.777Z,100915.06
2023-05-02T10:09:32.347Z,100931.41
2023-05-02T10:12:04.922Z,100923.22
2023-05-02T10:14:36.331Z,100925.41
2023-05-02T10:17:10.110Z,100927.06
2023-05-02T10:19:42.683Z,100930.94
2023-05-02T10:22:12.859Z,100934.75
2023-05-02T10:24:42.050Z,100945.72
2023-05-02T10:27:09.589Z,100947.09
2023-05-02T10:29:38.122Z,100939.94
2023-05-02T10:32:07.967Z,100946.06
2023-05-02T10:34:36.506Z,100954.84
2023-05-02T10:37:03.883Z,100954.16
2023-05-02T10:39:33.040Z,100964.81
2023-05-02T10:42:06.030Z,100968.19
2023-05-02T10:44:34.635Z,100973.44
2023-05-02T10:47:02.416Z,100964.13
2023-05-02T10:49:30.068Z,100964.25
2023-05-02T10:51:57.495Z,100967.78
2023-05-02T10:54:25.899Z,100963.81
2023-05-02T10:57:08.460Z,100976.66
2023-05-02T10:59:38.229Z,100972.38
2023-05-02T11:02:07.113Z,100974.53
2023-05-02T11:05:03.069Z,100983.94
2023-05-02T11:07:32.016Z,100976.81
2023-05-02T11:10:27.217Z,100978.28
2023-05-02T11:12:57.059Z,100980.88
2023-05-02T11:15:56.691Z,101002.66
2023-05-02T11:18:24.521Z,101019.06
2023-05-02T11:20:52.078Z,101011.91
2023-05-02T11:23:25.815Z,101017.38
2023-05-02T11:25:55.595Z,101036.03
2023-05-02T11:28:48.698Z,101039.97
2023-05-02T11:31:55.966Z,101049.81
2023-05-02T11:34:23.518Z,101061.16
2023-05-02T11:36:50.931Z,101066.41
2023-05-02T11:39:23.940Z,101073.25
2023-05-02T11:41:51.874Z,101072.88
2023-05-02T11:44:20.572Z,101078.41
2023-05-02T11:46:48.382Z,101087.59
2023-05-02T11:49:16.377Z,101084.78
2023-05-02T11:51:43.999Z,101088.94
2023-05-02T11:54:19.545Z,101087.88
2023-05-02T11:56:48.025Z,101108.63
2023-05-02T11:59:15.437Z,101110.63
2023-05-02T12:01:50.035Z,101123.09
2023-05-02T12:04:21.790Z,101125.88
2023-05-02T12:06:58.929Z,101129.06
2023-05-02T12:09:26.435Z,101132.38
2023-05-02T12:11:54.928Z,101149.84
2023-05-02T12:14:29.557Z,101149.84
2023-05-02T12:16:59.735Z,101156.84
2023-05-02T12:19:28.139Z,101144.31
2023-05-02T12:21:55.701Z,101157.41
2023-05-02T12:24:23.450Z,101167.19
2023-05-02T12:26:53.045Z,101170.03
2023-05-02T12:29:20.517Z,101177.88
2023-05-02T12:31:54.131Z,101179.06
2023-05-02T12:34:34.376Z,101191.44
2023-05-02T12:37:02.400Z,101185.31
2023-05-02T12:39:36.858Z,101188.16
2023-05-02T12:42:11.875Z,101190.97
2023-05-02T12:44:40.753Z,101194.97
2023-05-02T12:47:09.142Z,101196.22
2023-05-02T12:49:51.317Z,101200.50
2023-05-02T12:52:19.452Z,101203.31
2023-05-02T12:54:47.180Z,101199.44
2023-05-02T12:57:24.943Z,101202.31
2023-05-02T12:59:53.761Z,101206.19
2023-05-02T13:02:22.644Z,101208.69
2023-05-02T13:04:51.542Z,101199.50
2023-05-02T13:07:18.977Z,101205.94
2023-05-02T13:09:46.391Z,101213.22
2023-05-02T13:12:13.992Z,101203.97
2023-05-02T13:14:41.589Z,101209.06
2023-05-02T13:17:09.544Z,101222.38
2023-05-02T13:19:38.771Z,101219.09
2023-05-02T13:22:09.505Z,101228.81
2023-05-02T13:24:36.860Z,101230.19
2023-05-02T13:27:04.947Z,101230.53
2023-05-02T13:29:32.323Z,101234.97
2023-05-02T13:31:59.811Z,101243.56
2023-05-02T13:34:27.615Z,101253.28
2023-05-02T13:36:55.012Z,101245.81
2023-05-02T13:39:24.007Z,101254.56
2023-05-02T13:41:51.436Z,101252.91
2023-05-02T13:44:18.860Z,101260.56
2023-05-02T13:46:46.315Z,101268.97
2023-05-02T13:49:13.862Z,101262.28
2023-05-02T13:51:41.593Z,101256.22
2023-05-02T13:54:09.054Z,101266.09
2023-05-02T13:56:41.467Z,101264.47
2023-05-02T13:59:10.917Z,101258.25
2023-05-02T14:01:40.430Z,101264.38
2023-05-02T14:04:08.714Z,101263.56
2023-05-02T14:06:36.983Z,101261.25
2023-05-02T14:09:05.195Z,101266.75
2023-05-02T14:11:32.699Z,101274.53
2023-05-02T14:14:01.569Z,101264.38
2023-05-02T14:16:30.029Z,101257.03
2023-05-02T14:18:57.600Z,101259.34
2023-05-02T14:21:25.140Z,101261.47
2023-05-02T14:23:52.504Z,101262.16
2023-05-02T14:26:20.370Z,101264.53
2023-05-02T14:28:48.065Z,101269.25
2023-05-02T14:31:16.812Z,101280.66
2023-05-02T14:33:44.404Z,101281.09
2023-05-02T14:36:12.506Z,101279.22
2023-05-02T14:38:39.941Z,101289.91
2023-05-02T14:41:07.649Z,101289.47
2023-05-02T14:43:35.039Z,101278.13
2023-05-02T14:46:02.690Z,101292.59
2023-05-02T14:48:31.459Z,101292.13
2023-05-02T14:51:01.129Z,101289.88
2023-05-02T14:53:28.524Z,101291.75
2023-05-02T14:55:55.913Z,101298.00
2023-05-02T14:58:23.573Z,101301.75
2023-05-02T15:00:51.489Z,101296.25
2023-05-02T15:03:19.328Z,101298.84
2023-05-02T15:05:48.192Z,101300.56
2023-05-02T15:08:18.474Z,101297.13
2023-05-02T15:10:45.910Z,101304.72
2023-05-02T15:13:13.285Z,101302.91
2023-05-02T15:15:40.697Z,101296.41
2023-05-02T15:18:08.131Z,101307.44
2023-05-02T15:20:35.539Z,101316.41
2023-05-02T15:23:04.419Z,101319.97
2023-05-02T15:25:32.300Z,101322.66
2023-05-02T15:27:59.732Z,101320.91
2023-05-02T15:30:27.212Z,101332.50
2023-05-02T15:32:54.714Z,101330.34
2023-05-02T15:35:22.435Z,101334.75
2023-05-02T15:37:49.806Z,101331.84
2023-05-02T15:40:19.249Z,101338.81
2023-05-02T15:42:46.965Z,101329.72
2023-05-02T15:45:14.433Z,101328.19
2023-05-02T15:47:41.916Z,101330.56
2023-05-02T15:50:11.122Z,101335.31
2023-05-02T15:52:38.491Z,101343.25
2023-05-02T15:55:06.585Z,101336.38
2023-05-02T15:57:35.294Z,101342.19
2023-05-02T16:00:03.515Z,101343.63
2023-05-02T16:02:31.469Z,101339.38
2023-05-02T16:04:58.845Z,101339.03
2023-05-02T16:07:26.441Z,101348.16
2023-05-02T16:09:53.897Z,101353.63
2023-05-02T16:12:21.266Z,101350.94
2023-05-02T16:14:50.925Z,101346.72
2023-05-02T16:17:18.406Z,101347.59
2023-05-02T16:19:45.767Z,101344.09
2023-05-02T16:22:13.153Z,101347.59
2023-05-02T16:24:41.258Z,101344.69
2023-05-02T16:27:09.861Z,101351.22
2023-05-02T16:29:37.269Z,101362.66
2023-05-02T16:32:07.958Z,101366.38
2023-05-02T16:34:35.391Z,101363.53
2023-05-02T16:37:03.941Z,101358.59
2023-05-02T16:39:31.660Z,101358.94
2023-05-02T16:41:59.087Z,101351.34
2023-05-02T16:44:26.541Z,101360.63
2023-05-02T16:46:54.046Z,101361.69
2023-05-02T16:49:22.976Z,101359.22
2023-05-02T16:51:51.686Z,101354.13
2023-05-02T16:54:19.064Z,101351.88
2023-05-02T16:56:46.577Z,101347.13
2023-05-02T16:59:14.001Z,101349.78
2023-05-02T17:01:41.447Z,101348.91
2023-05-02T17:04:09.661Z,101350.59
2023-05-02T17:06:38.490Z,101355.50
2023-05-02T17:09:06.203Z,101361.69
2023-05-02T17:11:33.608Z,101346.75
2023-05-02T17:14:02.013Z,101351.88
2023-05-02T17:16:29.491Z,101361.31
2023-05-02T17:18:56.908Z,101354.31
2023-05-02T17:21:24.438Z,101359.22
2023-05-02T17:23:53.219Z,101353.47
2023-05-02T17:26:22.808Z,101353.06
2023-05-02T17:28:53.396Z,101361.00
2023-05-02T17:31:20.939Z,101356.75
2023-05-02T17:33:48.429Z,101361.22
2023-05-02T17:36:15.925Z,101359.13
2023-05-02T17:38:43.772Z,101365.13
2023-05-02T17:41:12.911Z,101366.53
2023-05-02T17:43:42.230Z,101363.06
2023-05-02T17:46:10.093Z,101362.22
2023-05-02T17:48:37.761Z,101361.59
2023-05-02T17:51:06.883Z,101358.31
2023-05-02T17:53:35.319Z,101366.91
2023-05-02T17:56:03.151Z,101373.84
2023-05-02T17:58:32.564Z,101382.41
2023-05-02T18:01:07.785Z,101373.78
2023-05-02T18:03:36.387Z,101372.34
2023-05-02T18:06:04.042Z,101377.25
2023-05-02T18:08:31.652Z,101389.09
2023-05-02T18:11:00.009Z,101392.34
2023-05-02T18:13:27.934Z,101394.34
2023-05-02T18:16:01.397Z,101393.50
2023-05-02T18:18:29.424Z,101386.94
2023-05-02T18:20:57.609Z,101394.06
2023-05-02T18:23:25.021Z,101390.19
2023-05-02T18:25:52.439Z,101395.06
2023-05-02T18:28:19.882Z,101391.75
2023-05-02T18:30:47.294Z,101384.78
2023-05-02T18:33:16.113Z,101385.34
2023-05-02T18:35:46.436Z,101381.28
2023-05-02T18:38:14.392Z,101374.72
2023-05-02T18:40:41.963Z,101373.91
2023-05-02T18:43:10.874Z,101366.19
2023-05-02T18:45:38.375Z,101374.72
2023-05-02T18:48:05.970Z,101371.66
2023-05-02T18:50:34.780Z,101373.88
2023-05-02T18:53:02.207Z,101369.94
2023-05-02T18:55:29.588Z,101377.09
2023-05-02T18:57:56.958Z,101365.59
2023-05-02T19:00:25.783Z,101366.59
2023-05-02T19:02:53.953Z,101368.41
2023-05-02T19:05:21.515Z,101372.84
2023-05-02T19:07:50.253Z,101374.69
2023-05-02T19:10:17.926Z,101369.94
2023-05-02T19:12:47.019Z,101366.44
2023-05-02T19:15:14.443Z,101377.06
2023-05-02T19:17:43.291Z,101372.44
2023-05-02T19:20:11.646Z,101372.22
2023-05-02T19:22:39.163Z,101371.75
2023-05-02T19:25:09.512Z,101380.19
2023-05-02T19:27:37.083Z,101384.84
2023-05-02T19:30:05.344Z,101395.47
2023-05-02T19:32:32.959Z,101392.19
2023-05-02T19:35:01.966Z,101387.69
2023-05-02T19:37:29.569Z,101391.88
2023-05-02T19:39:57.060Z,101395.28
2023-05-02T19:42:25.975Z,101387.44
2023-05-02T19:44:54.150Z,101381.69
2023-05-02T19:47:22.345Z,101382.00
2023-05-02T19:49:51.730Z,101381.47
2023-05-02T19:52:19.090Z,101383.22
2023-05-02T19:54:47.418Z,101388.66
2023-05-02T19:57:14.793Z,101378.03
2023-05-02T19:59:43.519Z,101377.94
2023-05-02T20:02:11.690Z,101375.47
2023-05-02T20:04:39.157Z,101369.72
2023-05-02T20:07:06.526Z,101375.19
2023-05-02T20:09:33.930Z,101363.31
2023-05-02T20:12:01.883Z,101366.25
2023-05-02T20:14:29.324Z,101369.72
2023-05-02T20:17:01.757Z,101373.00
2023-05-02T20:19:32.053Z,101373.66
2023-05-02T20:21:59.442Z,101372.38
2023-05-02T20:24:26.878Z,101374.19
2023-05-02T20:26:54.287Z,101364.53
2023-05-02T20:29:21.726Z,101366.28
2023-05-02T20:31:49.164Z,101368.22
2023-05-02T20:34:17.966Z,101363.59
2023-05-02T20:36:45.372Z,101339.75
2023-05-02T20:39:13.468Z,101330.44
2023-05-02T20:41:41.535Z,101324.56
2023-05-02T20:44:08.894Z,101303.91
2023-05-02T20:46:36.991Z,101283.75
2023-05-02T20:49:05.662Z,101271.03
2023-05-02T20:51:34.422Z,101258.28
2023-05-02T20:54:02.188Z,101246.63
2023-05-02T20:56:29.577Z,101244.25
2023-05-02T20:58:57.287Z,101246.97
2023-05-02T21:01:26.101Z,101245.44
2023-05-02T21:03:53.565Z,101228.63
2023-05-02T21:06:23.314Z,101222.50
2023-05-02T21:08:55.057Z,101215.19
2023-05-02T21:11:22.608Z,101205.56
2023-05-02T21:13:50.066Z,101208.38
2023-05-02T21:16:18.441Z,101202.03
2023-05-02T21:18:46.431Z,101190.13
2023-05-02T21:21:14.503Z,101178.38
2023-05-02T21:23:42.119Z,101157.16
2023-05-02T21:26:10.824Z,101152.53
2023-05-02T21:28:38.518Z,101144.94
2023-05-02T21:31:07.967Z,101136.88
2023-05-02T21:33:35.633Z,101114.66
2023-05-02T21:36:03.071Z,101094.06
2023-05-02T21:38:30.524Z,101101.56
2023-05-02T21:41:02.609Z,101079.31
2023-05-02T21:43:32.125Z,101070.75
2023-05-02T21:45:59.511Z,101064.16
2023-05-02T21:48:26.909Z,101072.78
2023-05-02T21:50:54.523Z,101065.59
2023-05-02T21:53:21.961Z,101058.47
2023-05-02T21:55:49.368Z,101062.84
2023-05-02T21:58:16.856Z,101062.84
2023-05-02T22:00:45.723Z,101050.22
2023-05-02T22:03:13.120Z,101029.16
2023-05-02T22:05:41.549Z,101021.91
2023-05-02T22:08:10.874Z,101012.00
2023-05-02T22:10:39.481Z,101000.34
2023-05-02T22:13:09.334Z,100985.38
2023-05-02T22:15:37.631Z,100983.28
2023-05-02T22:18:07.058Z,100976.56
2023-05-02T22:20:36.083Z,100974.91
2023-05-02T22:23:03.569Z,100977.53
2023-05-02T22:25:31.015Z,100984.44
2023-05-02T22:28:00.955Z,100981.50
2023-05-02T22:30:28.335Z,100981.31
2023-05-02T22:32:55.864Z,100976.41
2023-05-02T22:35:24.628Z,100987.09
2023-05-02T22:37:52.009Z,100983.47
2023-05-02T22:40:19.593Z,100982.19
2023-05-02T22:42:46.971Z,100978.88
2023-05-02T22:45:14.435Z,100983.66
2023-05-02T22:47:41.894Z,100984.63
2023-05-02T22:50:11.149Z,100985.09
2023-05-02T22:52:40.034Z,100983.47
2023-05-02T22:55:09.042Z,100982.34
2023-05-02T22:57:36.535Z,100986.59
2023-05-02T23:00:05.280Z,100992.53
2023-05-02T23:02:32.948Z,100989.41
2023-05-02T23:05:00.396Z,100986.13
2023-05-02T23:07:27.837Z,100993.16
2023-05-02T23:09:56.664Z,100988.41
2023-05-02T23:12:24.091Z,100985.28
2023-05-02T23:14:51.471Z,100989.88
2023-05-02T23:17:19.399Z,100982.78
2023-05-02T23:19:46.807Z,100982.78
2023-05-02T23:22:14.256Z,100991.63
2023-05-02T23:24:42.007Z,100991.63
2023-05-02T23:27:10.756Z,100991.16
2023-05-02T23:29:38.200Z,100993.47
2023-05-02T23:32:07.935Z,101002.38
2023-05-02T23:34:36.929Z,100997.75
2023-05-02T23:37:06.886Z,101003.31
2023-05-02T23:39:34.618Z,101000.66
2023-05-02T23:42:03.539Z,101008.38
2023-05-02T23:44:32.358Z,101008.38
2023-05-02T23:46:59.877Z,101009.53
2023-05-02T23:49:27.396Z,101012.84
2023-05-02T23:51:54.836Z,101022.09
2023-05-02T23:54:22.327Z,101023.56
2023-05-02T23:56:49.772Z,101019.88
2023-05-02T23:59:17.628Z,101025.56
